sensor_id;sensor_type;location;lat;lon;timestamp;P1;durP1;ratioP1;P2;durP2;ratioP2
67712;SDS011;67640;55.784;49.138;2023-05-24T00:04:49;10.30;;;4.20;;
67712;SDS011;67640;55.784;49.138;2023-05-24T00:09:55;8.45;;;4.00;;
67712;SDS011;67640;55.784;49.138;2023-05-24T00:15:09;8.50;;;4.15;;
67712;SDS011;67640;55.784;49.138;2023-05-24T00:20:24;10.35;;;4.70;;
67712;SDS011;67640;55.784;49.138;2023-05-24T00:25:49;12.25;;;5.85;;
67712;SDS011;67640;55.784;49.138;2023-05-24T00:30:59;10.45;;;4.35;;
67712;SDS011;67640;55.784;49.138;2023-05-24T00:36:18;12.40;;;4.80;;
67712;SDS011;67640;55.784;49.138;2023-05-24T00:41:24;14.95;;;5.00;;
67712;SDS011;67640;55.784;49.138;2023-05-24T00:46:43;11.25;;;5.40;;
67712;SDS011;67640;55.784;49.138;2023-05-24T00:52:02;8.93;;;4.90;;
67712;SDS011;67640;55.784;49.138;2023-05-24T00:57:21;9.60;;;4.78;;
67712;SDS011;67640;55.784;49.138;2023-05-24T01:02:41;12.40;;;4.40;;
67712;SDS011;67640;55.784;49.138;2023-05-24T01:18:54;14.75;;;5.17;;
67712;SDS011;67640;55.784;49.138;2023-05-24T01:29:38;9.60;;;4.67;;
67712;SDS011;67640;55.784;49.138;2023-05-24T01:34:58;12.77;;;4.40;;
67712;SDS011;67640;55.784;49.138;2023-05-24T01:40:17;13.05;;;4.33;;
67712;SDS011;67640;55.784;49.138;2023-05-24T01:56:42;11.35;;;4.53;;
67712;SDS011;67640;55.784;49.138;2023-05-24T02:01:48;12.77;;;4.63;;
67712;SDS011;67640;55.784;49.138;2023-05-24T02:07:07;15.23;;;4.70;;
67712;SDS011;67640;55.784;49.138;2023-05-24T02:12:13;9.70;;;4.78;;
67712;SDS011;67640;55.784;49.138;2023-05-24T02:17:32;9.70;;;4.53;;
67712;SDS011;67640;55.784;49.138;2023-05-24T02:22:37;20.45;;;4.95;;
67712;SDS011;67640;55.784;49.138;2023-05-24T02:33:22;11.75;;;4.60;;
67712;SDS011;67640;55.784;49.138;2023-05-24T02:38:41;14.45;;;4.65;;
67712;SDS011;67640;55.784;49.138;2023-05-24T02:43:46;10.08;;;4.70;;
67712;SDS011;67640;55.784;49.138;2023-05-24T02:49:05;9.15;;;4.50;;
67712;SDS011;67640;55.784;49.138;2023-05-24T02:54:24;10.78;;;4.67;;
67712;SDS011;67640;55.784;49.138;2023-05-24T02:59:31;12.07;;;4.42;;
67712;SDS011;67640;55.784;49.138;2023-05-24T03:04:36;12.40;;;4.60;;
67712;SDS011;67640;55.784;49.138;2023-05-24T03:09:54;11.90;;;4.45;;
67712;SDS011;67640;55.784;49.138;2023-05-24T03:14:59;14.55;;;4.35;;
67712;SDS011;67640;55.784;49.138;2023-05-24T03:20:18;17.95;;;4.47;;
67712;SDS011;67640;55.784;49.138;2023-05-24T03:25:28;16.00;;;4.50;;
67712;SDS011;67640;55.784;49.138;2023-05-24T03:30:47;10.25;;;4.40;;
67712;SDS011;67640;55.784;49.138;2023-05-24T03:35:53;13.20;;;4.87;;
67712;SDS011;67640;55.784;49.138;2023-05-24T03:41:12;13.25;;;4.55;;
67712;SDS011;67640;55.784;49.138;2023-05-24T03:46:31;12.15;;;4.85;;
67712;SDS011;67640;55.784;49.138;2023-05-24T03:51:50;10.05;;;4.60;;
67712;SDS011;67640;55.784;49.138;2023-05-24T03:57:09;12.85;;;5.30;;
67712;SDS011;67640;55.784;49.138;2023-05-24T04:02:14;8.43;;;4.50;;
67712;SDS011;67640;55.784;49.138;2023-05-24T04:07:19;13.88;;;4.20;;
67712;SDS011;67640;55.784;49.138;2023-05-24T04:12:39;11.70;;;4.28;;
67712;SDS011;67640;55.784;49.138;2023-05-24T04:17:45;11.15;;;4.47;;
67712;SDS011;67640;55.784;49.138;2023-05-24T04:23:04;12.10;;;4.00;;
67712;SDS011;67640;55.784;49.138;2023-05-24T04:28:23;10.55;;;4.37;;
67712;SDS011;67640;55.784;49.138;2023-05-24T04:33:28;17.60;;;4.62;;
67712;SDS011;67640;55.784;49.138;2023-05-24T04:38:47;19.00;;;5.00;;
67712;SDS011;67640;55.784;49.138;2023-05-24T04:43:52;14.70;;;4.50;;
67712;SDS011;67640;55.784;49.138;2023-05-24T04:49:11;11.60;;;4.30;;
67712;SDS011;67640;55.784;49.138;2023-05-24T04:54:17;10.75;;;4.25;;
67712;SDS011;67640;55.784;49.138;2023-05-24T04:59:36;14.30;;;4.40;;
67712;SDS011;67640;55.784;49.138;2023-05-24T05:04:55;19.20;;;5.30;;
67712;SDS011;67640;55.784;49.138;2023-05-24T05:10:14;18.07;;;5.70;;
67712;SDS011;67640;55.784;49.138;2023-05-24T05:15:33;14.40;;;4.35;;
67712;SDS011;67640;55.784;49.138;2023-05-24T05:20:38;10.53;;;4.47;;
67712;SDS011;67640;55.784;49.138;2023-05-24T05:25:57;14.33;;;4.37;;
67712;SDS011;67640;55.784;49.138;2023-05-24T05:31:02;20.65;;;5.17;;
67712;SDS011;67640;55.784;49.138;2023-05-24T05:36:08;58.03;;;7.70;;
67712;SDS011;67640;55.784;49.138;2023-05-24T05:41:27;80.80;;;21.10;;
67712;SDS011;67640;55.784;49.138;2023-05-24T05:46:32;350.07;;;126.60;;
67712;SDS011;67640;55.784;49.138;2023-05-24T05:51:51;431.15;;;144.60;;
67712;SDS011;67640;55.784;49.138;2023-05-24T05:57:11;45.90;;;14.87;;
67712;SDS011;67640;55.784;49.138;2023-05-24T06:02:15;39.50;;;16.40;;
67712;SDS011;67640;55.784;49.138;2023-05-24T06:13:19;147.75;;;46.75;;
67712;SDS011;67640;55.784;49.138;2023-05-24T06:18:24;240.62;;;115.77;;
67712;SDS011;67640;55.784;49.138;2023-05-24T06:23:43;335.90;;;134.87;;
67712;SDS011;67640;55.784;49.138;2023-05-24T06:29:02;111.50;;;63.40;;
67712;SDS011;67640;55.784;49.138;2023-05-24T06:34:07;25.35;;;7.83;;
67712;SDS011;67640;55.784;49.138;2023-05-24T06:39:26;46.10;;;11.57;;
67712;SDS011;67640;55.784;49.138;2023-05-24T06:44:32;35.85;;;6.03;;
67712;SDS011;67640;55.784;49.138;2023-05-24T06:49:52;22.77;;;6.47;;
67712;SDS011;67640;55.784;49.138;2023-05-24T06:54:57;23.12;;;4.50;;
67712;SDS011;67640;55.784;49.138;2023-05-24T07:00:16;56.03;;;5.83;;
67712;SDS011;67640;55.784;49.138;2023-05-24T07:05:35;187.60;;;73.55;;
67712;SDS011;67640;55.784;49.138;2023-05-24T07:10:54;70.83;;;17.57;;
67712;SDS011;67640;55.784;49.138;2023-05-24T07:21:35;283.10;;;93.62;;
67712;SDS011;67640;55.784;49.138;2023-05-24T07:26:41;21.67;;;4.80;;
67712;SDS011;67640;55.784;49.138;2023-05-24T07:31:46;22.85;;;4.92;;
67712;SDS011;67640;55.784;49.138;2023-05-24T07:36:52;23.95;;;4.40;;
67712;SDS011;67640;55.784;49.138;2023-05-24T07:42:11;12.27;;;4.00;;
67712;SDS011;67640;55.784;49.138;2023-05-24T07:47:30;27.52;;;3.85;;
67712;SDS011;67640;55.784;49.138;2023-05-24T07:52:36;146.77;;;8.33;;
67712;SDS011;67640;55.784;49.138;2023-05-24T07:57:55;25.92;;;3.92;;
67712;SDS011;67640;55.784;49.138;2023-05-24T08:03:00;20.20;;;4.37;;
67712;SDS011;67640;55.784;49.138;2023-05-24T08:08:05;37.85;;;4.70;;
67712;SDS011;67640;55.784;49.138;2023-05-24T08:13:24;40.45;;;5.28;;
67712;SDS011;67640;55.784;49.138;2023-05-24T08:18:43;46.50;;;5.47;;
67712;SDS011;67640;55.784;49.138;2023-05-24T08:24:02;23.07;;;4.40;;
67712;SDS011;67640;55.784;49.138;2023-05-24T08:29:22;53.58;;;6.62;;
67712;SDS011;67640;55.784;49.138;2023-05-24T08:34:27;53.92;;;5.33;;
67712;SDS011;67640;55.784;49.138;2023-05-24T08:39:32;14.47;;;3.87;;
67712;SDS011;67640;55.784;49.138;2023-05-24T08:45:06;20.93;;;3.97;;
67712;SDS011;67640;55.784;49.138;2023-05-24T08:55:50;134.35;;;10.60;;
67712;SDS011;67640;55.784;49.138;2023-05-24T09:00:55;104.30;;;8.67;;
67712;SDS011;67640;55.784;49.138;2023-05-24T09:06:15;19.67;;;3.40;;
67712;SDS011;67640;55.784;49.138;2023-05-24T09:11:20;17.50;;;3.25;;
67712;SDS011;67640;55.784;49.138;2023-05-24T09:16:41;16.80;;;3.45;;
67712;SDS011;67640;55.784;49.138;2023-05-24T09:22:01;61.25;;;5.30;;
67712;SDS011;67640;55.784;49.138;2023-05-24T09:27:06;15.27;;;3.40;;
67712;SDS011;67640;55.784;49.138;2023-05-24T09:32:26;16.87;;;3.00;;
67712;SDS011;67640;55.784;49.138;2023-05-24T09:43:21;74.70;;;10.47;;
67712;SDS011;67640;55.784;49.138;2023-05-24T09:48:40;35.98;;;12.15;;
67712;SDS011;67640;55.784;49.138;2023-05-24T09:54:01;27.60;;;9.45;;
67712;SDS011;67640;55.784;49.138;2023-05-24T09:59:20;45.37;;;6.77;;
67712;SDS011;67640;55.784;49.138;2023-05-24T10:09:53;19.20;;;7.75;;
67712;SDS011;67640;55.784;49.138;2023-05-24T10:15:12;18.10;;;4.35;;
67712;SDS011;67640;55.784;49.138;2023-05-24T10:20:17;19.65;;;3.30;;
67712;SDS011;67640;55.784;49.138;2023-05-24T10:25:37;19.87;;;3.87;;
67712;SDS011;67640;55.784;49.138;2023-05-24T10:36:36;18.05;;;3.87;;
67712;SDS011;67640;55.784;49.138;2023-05-24T10:42:00;17.73;;;3.30;;
67712;SDS011;67640;55.784;49.138;2023-05-24T10:52:45;11.70;;;3.08;;
67712;SDS011;67640;55.784;49.138;2023-05-24T11:03:48;15.00;;;4.50;;
67712;SDS011;67640;55.784;49.138;2023-05-24T11:08:54;15.40;;;3.20;;
67712;SDS011;67640;55.784;49.138;2023-05-24T11:14:00;10.78;;;2.85;;
67712;SDS011;67640;55.784;49.138;2023-05-24T11:19:20;21.10;;;6.03;;
67712;SDS011;67640;55.784;49.138;2023-05-24T11:24:25;23.90;;;5.93;;
67712;SDS011;67640;55.784;49.138;2023-05-24T11:29:46;22.30;;;4.20;;
67712;SDS011;67640;55.784;49.138;2023-05-24T11:35:06;21.85;;;3.60;;
67712;SDS011;67640;55.784;49.138;2023-05-24T11:40:11;7.03;;;2.80;;
67712;SDS011;67640;55.784;49.138;2023-05-24T11:45:18;12.53;;;3.17;;
67712;SDS011;67640;55.784;49.138;2023-05-24T11:50:39;9.55;;;2.87;;
67712;SDS011;67640;55.784;49.138;2023-05-24T11:55:45;9.20;;;4.17;;
67712;SDS011;67640;55.784;49.138;2023-05-24T12:01:04;13.30;;;3.33;;
67712;SDS011;67640;55.784;49.138;2023-05-24T12:06:23;37.55;;;3.90;;
67712;SDS011;67640;55.784;49.138;2023-05-24T12:17:13;15.00;;;5.95;;
67712;SDS011;67640;55.784;49.138;2023-05-24T12:28:07;11.45;;;3.40;;
67712;SDS011;67640;55.784;49.138;2023-05-24T12:33:26;7.70;;;3.20;;
67712;SDS011;67640;55.784;49.138;2023-05-24T12:38:46;12.03;;;3.22;;
67712;SDS011;67640;55.784;49.138;2023-05-24T12:43:59;20.75;;;6.53;;
67712;SDS011;67640;55.784;49.138;2023-05-24T12:49:05;8.23;;;3.00;;
67712;SDS011;67640;55.784;49.138;2023-05-24T12:54:25;9.80;;;2.98;;
67712;SDS011;67640;55.784;49.138;2023-05-24T12:59:44;8.43;;;3.08;;
67712;SDS011;67640;55.784;49.138;2023-05-24T13:05:03;13.83;;;3.27;;
67712;SDS011;67640;55.784;49.138;2023-05-24T13:10:23;10.47;;;3.10;;
67712;SDS011;67640;55.784;49.138;2023-05-24T13:15:29;6.60;;;3.20;;
67712;SDS011;67640;55.784;49.138;2023-05-24T13:20:48;11.45;;;3.05;;
67712;SDS011;67640;55.784;49.138;2023-05-24T13:26:09;7.70;;;3.33;;
67712;SDS011;67640;55.784;49.138;2023-05-24T13:31:17;13.27;;;3.33;;
67712;SDS011;67640;55.784;49.138;2023-05-24T13:36:35;10.47;;;3.00;;
67712;SDS011;67640;55.784;49.138;2023-05-24T13:41:41;22.40;;;3.58;;
67712;SDS011;67640;55.784;49.138;2023-05-24T13:47:00;19.80;;;3.72;;
67712;SDS011;67640;55.784;49.138;2023-05-24T13:52:06;12.98;;;3.55;;
67712;SDS011;67640;55.784;49.138;2023-05-24T13:57:25;10.87;;;3.47;;
67712;SDS011;67640;55.784;49.138;2023-05-24T14:02:44;10.55;;;3.10;;
67712;SDS011;67640;55.784;49.138;2023-05-24T14:08:03;11.28;;;3.10;;
67712;SDS011;67640;55.784;49.138;2023-05-24T14:13:22;18.00;;;5.33;;
67712;SDS011;67640;55.784;49.138;2023-05-24T14:18:27;13.40;;;4.05;;
67712;SDS011;67640;55.784;49.138;2023-05-24T14:23:32;14.83;;;4.35;;
67712;SDS011;67640;55.784;49.138;2023-05-24T14:28:43;12.95;;;3.60;;
67712;SDS011;67640;55.784;49.138;2023-05-24T14:34:02;15.20;;;3.47;;
67712;SDS011;67640;55.784;49.138;2023-05-24T14:39:08;12.93;;;3.73;;
67712;SDS011;67640;55.784;49.138;2023-05-24T14:44:27;12.50;;;3.40;;
67712;SDS011;67640;55.784;49.138;2023-05-24T14:49:32;11.85;;;3.70;;
67712;SDS011;67640;55.784;49.138;2023-05-24T14:54:51;8.13;;;3.98;;
67712;SDS011;67640;55.784;49.138;2023-05-24T15:00:10;11.17;;;3.37;;
67712;SDS011;67640;55.784;49.138;2023-05-24T15:05:15;13.10;;;3.77;;
67712;SDS011;67640;55.784;49.138;2023-05-24T15:10:34;11.50;;;3.72;;
67712;SDS011;67640;55.784;49.138;2023-05-24T15:15:54;10.43;;;3.70;;
67712;SDS011;67640;55.784;49.138;2023-05-24T15:20:59;12.35;;;4.05;;
67712;SDS011;67640;55.784;49.138;2023-05-24T15:26:18;10.90;;;3.50;;
67712;SDS011;67640;55.784;49.138;2023-05-24T15:31:23;10.65;;;3.70;;
67712;SDS011;67640;55.784;49.138;2023-05-24T15:36:43;10.38;;;3.60;;
67712;SDS011;67640;55.784;49.138;2023-05-24T15:42:03;17.50;;;4.13;;
67712;SDS011;67640;55.784;49.138;2023-05-24T15:47:22;20.37;;;7.95;;
67712;SDS011;67640;55.784;49.138;2023-05-24T15:52:41;26.60;;;6.53;;
67712;SDS011;67640;55.784;49.138;2023-05-24T15:57:47;23.47;;;7.28;;
67712;SDS011;67640;55.784;49.138;2023-05-24T16:02:53;17.57;;;5.33;;
67712;SDS011;67640;55.784;49.138;2023-05-24T16:08:12;31.17;;;5.20;;
67712;SDS011;67640;55.784;49.138;2023-05-24T16:13:18;14.70;;;4.47;;
67712;SDS011;67640;55.784;49.138;2023-05-24T16:18:28;26.55;;;6.20;;
67712;SDS011;67640;55.784;49.138;2023-05-24T16:23:34;26.77;;;6.50;;
67712;SDS011;67640;55.784;49.138;2023-05-24T16:28:52;18.50;;;5.57;;
67712;SDS011;67640;55.784;49.138;2023-05-24T16:33:58;14.05;;;5.80;;
67712;SDS011;67640;55.784;49.138;2023-05-24T16:39:17;28.75;;;6.80;;
67712;SDS011;67640;55.784;49.138;2023-05-24T16:44:24;14.28;;;5.72;;
67712;SDS011;67640;55.784;49.138;2023-05-24T16:49:43;21.93;;;5.55;;
67712;SDS011;67640;55.784;49.138;2023-05-24T16:54:48;18.27;;;6.80;;
67712;SDS011;67640;55.784;49.138;2023-05-24T16:59:54;16.48;;;5.40;;
67712;SDS011;67640;55.784;49.138;2023-05-24T17:05:13;19.65;;;5.62;;
67712;SDS011;67640;55.784;49.138;2023-05-24T17:10:19;22.47;;;7.07;;
67712;SDS011;67640;55.784;49.138;2023-05-24T17:15:39;20.97;;;7.90;;
67712;SDS011;67640;55.784;49.138;2023-05-24T17:20:44;23.57;;;6.78;;
67712;SDS011;67640;55.784;49.138;2023-05-24T17:26:04;12.95;;;5.37;;
67712;SDS011;67640;55.784;49.138;2023-05-24T17:31:23;17.17;;;5.17;;
67712;SDS011;67640;55.784;49.138;2023-05-24T17:36:42;16.45;;;4.03;;
67712;SDS011;67640;55.784;49.138;2023-05-24T17:42:01;17.15;;;4.08;;
67712;SDS011;67640;55.784;49.138;2023-05-24T17:47:35;9.53;;;3.92;;
67712;SDS011;67640;55.784;49.138;2023-05-24T17:52:41;13.83;;;3.50;;
67712;SDS011;67640;55.784;49.138;2023-05-24T17:58:00;17.10;;;3.67;;
67712;SDS011;67640;55.784;49.138;2023-05-24T18:03:06;7.15;;;3.55;;
67712;SDS011;67640;55.784;49.138;2023-05-24T18:08:11;16.37;;;4.40;;
67712;SDS011;67640;55.784;49.138;2023-05-24T18:13:30;10.45;;;3.90;;
67712;SDS011;67640;55.784;49.138;2023-05-24T18:18:36;8.27;;;3.30;;
67712;SDS011;67640;55.784;49.138;2023-05-24T18:23:55;11.03;;;3.60;;
67712;SDS011;67640;55.784;49.138;2023-05-24T18:29:00;10.75;;;3.20;;
67712;SDS011;67640;55.784;49.138;2023-05-24T18:34:19;7.08;;;3.20;;
67712;SDS011;67640;55.784;49.138;2023-05-24T18:39:34;10.40;;;3.70;;
67712;SDS011;67640;55.784;49.138;2023-05-24T18:44:39;7.90;;;3.10;;
67712;SDS011;67640;55.784;49.138;2023-05-24T18:49:58;10.15;;;4.00;;
67712;SDS011;67640;55.784;49.138;2023-05-24T18:55:03;9.57;;;3.60;;
67712;SDS011;67640;55.784;49.138;2023-05-24T19:00:23;11.10;;;3.40;;
67712;SDS011;67640;55.784;49.138;2023-05-24T19:05:43;13.75;;;4.15;;
67712;SDS011;67640;55.784;49.138;2023-05-24T19:11:03;11.10;;;3.60;;
67712;SDS011;67640;55.784;49.138;2023-05-24T19:16:09;17.17;;;4.50;;
67712;SDS011;67640;55.784;49.138;2023-05-24T19:21:17;9.87;;;3.57;;
67712;SDS011;67640;55.784;49.138;2023-05-24T19:47:56;8.15;;;3.00;;
67712;SDS011;67640;55.784;49.138;2023-05-24T19:53:02;10.13;;;3.20;;
67712;SDS011;67640;55.784;49.138;2023-05-24T19:58:21;8.38;;;2.70;;
67712;SDS011;67640;55.784;49.138;2023-05-24T20:03:26;9.37;;;2.93;;
67712;SDS011;67640;55.784;49.138;2023-05-24T20:08:45;12.88;;;3.55;;
67712;SDS011;67640;55.784;49.138;2023-05-24T20:14:04;15.20;;;3.10;;
67712;SDS011;67640;55.784;49.138;2023-05-24T20:19:24;13.97;;;3.10;;
67712;SDS011;67640;55.784;49.138;2023-05-24T20:24:28;13.05;;;3.15;;
67712;SDS011;67640;55.784;49.138;2023-05-24T20:29:34;9.35;;;3.22;;
67712;SDS011;67640;55.784;49.138;2023-05-24T20:34:40;12.00;;;3.15;;
67712;SDS011;67640;55.784;49.138;2023-05-24T20:40:03;9.40;;;2.80;;
67712;SDS011;67640;55.784;49.138;2023-05-24T20:45:09;10.53;;;3.10;;
67712;SDS011;67640;55.784;49.138;2023-05-24T20:50:15;13.97;;;3.20;;
67712;SDS011;67640;55.784;49.138;2023-05-24T20:55:34;12.03;;;3.10;;
67712;SDS011;67640;55.784;49.138;2023-05-24T21:00:54;11.68;;;2.87;;
67712;SDS011;67640;55.784;49.138;2023-05-24T21:06:13;7.67;;;3.03;;
67712;SDS011;67640;55.784;49.138;2023-05-24T21:11:18;10.68;;;3.02;;
67712;SDS011;67640;55.784;49.138;2023-05-24T21:16:24;7.37;;;3.27;;
67712;SDS011;67640;55.784;49.138;2023-05-24T21:21:30;11.10;;;2.70;;
67712;SDS011;67640;55.784;49.138;2023-05-24T21:26:35;8.40;;;2.92;;
67712;SDS011;67640;55.784;49.138;2023-05-24T21:31:55;7.37;;;3.17;;
67712;SDS011;67640;55.784;49.138;2023-05-24T21:37:14;5.95;;;2.72;;
67712;SDS011;67640;55.784;49.138;2023-05-24T21:42:20;9.13;;;2.98;;
67712;SDS011;67640;55.784;49.138;2023-05-24T21:47:25;10.33;;;3.13;;
67712;SDS011;67640;55.784;49.138;2023-05-24T21:52:32;7.25;;;2.83;;
67712;SDS011;67640;55.784;49.138;2023-05-24T21:57:46;12.23;;;2.73;;
67712;SDS011;67640;55.784;49.138;2023-05-24T22:03:05;9.05;;;3.00;;
67712;SDS011;67640;55.784;49.138;2023-05-24T22:08:10;6.33;;;2.65;;
67712;SDS011;67640;55.784;49.138;2023-05-24T22:13:29;7.90;;;2.60;;
67712;SDS011;67640;55.784;49.138;2023-05-24T22:24:33;8.08;;;2.62;;
67712;SDS011;67640;55.784;49.138;2023-05-24T22:29:39;11.40;;;2.67;;
67712;SDS011;67640;55.784;49.138;2023-05-24T22:34:58;8.23;;;2.77;;
67712;SDS011;67640;55.784;49.138;2023-05-24T22:40:17;7.17;;;2.58;;
67712;SDS011;67640;55.784;49.138;2023-05-24T22:45:36;11.47;;;2.80;;
67712;SDS011;67640;55.784;49.138;2023-05-24T22:56:08;12.55;;;2.72;;
67712;SDS011;67640;55.784;49.138;2023-05-24T23:06:52;11.70;;;3.17;;
67712;SDS011;67640;55.784;49.138;2023-05-24T23:12:11;7.43;;;2.60;;
67712;SDS011;67640;55.784;49.138;2023-05-24T23:17:30;9.48;;;2.77;;
67712;SDS011;67640;55.784;49.138;2023-05-24T23:22:36;8.35;;;3.08;;
67712;SDS011;67640;55.784;49.138;2023-05-24T23:27:40;10.30;;;2.80;;
67712;SDS011;67640;55.784;49.138;2023-05-24T23:32:45;10.88;;;3.37;;
67712;SDS011;67640;55.784;49.138;2023-05-24T23:38:05;6.43;;;2.83;;
67712;SDS011;67640;55.784;49.138;2023-05-24T23:43:24;11.90;;;3.20;;
67712;SDS011;67640;55.784;49.138;2023-05-24T23:48:29;7.70;;;2.70;;
67712;SDS011;67640;55.784;49.138;2023-05-24T23:53:48;11.23;;;3.00;;
67712;SDS011;67640;55.784;49.138;2023-05-24T23:58:53;9.13;;;2.98;;
